Time;durP1;ratioP1;P1;durP2;ratioP2;P2;SDS_P1;SDS_P2;PMS_P1;PMS_P2;Temp;Humidity;BMP_temperature;BMP_pressure;BME280_temperature;BME280_humidity;BME280_pressure;Samples;Min_cycle;Max_cycle;Signal;HPM_P1;HPM_P2
2022/11/05 00:10:21;;;;;;;15.63;14.10;;;9.90;1.00;;;;;;6292529;28;20247;-54
2022/11/05 00:16:45;;;;;;;16.37;14.53;;;9.90;1.00;;;;;;6285852;28;20692;-53
2022/11/05 00:19:48;;;;;;;15.37;13.97;;;9.90;1.00;;;;;;6306818;28;20233;-54
2022/11/05 00:26:25;;;;;;;14.10;12.60;;;9.90;1.00;;;;;;6283289;28;20713;-55
2022/11/05 00:29:29;;;;;;;14.80;11.87;;;9.90;1.00;;;;;;6282901;28;20233;-53
2022/11/05 00:32:32;;;;;;;14.00;12.50;;;9.90;1.00;;;;;;6283919;28;20294;-56
2022/11/05 00:35:36;;;;;;;11.90;10.77;;;9.90;1.00;;;;;;6285058;28;20240;-53
2022/11/05 00:38:40;;;;;;;12.23;10.93;;;10.20;1.00;;;;;;6296224;28;20367;-54
2022/11/05 00:44:58;;;;;;;11.07;10.07;;;9.90;1.00;;;;;;6296924;28;20229;-54
2022/11/05 00:45:09;;;;;;;14.17;10.60;;;9.90;1.00;;;;;;6285868;28;20240;-53
2022/11/05 00:51:33;;;;;;;11.43;9.67;;;9.90;1.00;;;;;;6298136;28;20232;-52
2022/11/05 00:54:36;;;;;;;11.73;9.37;;;9.90;1.00;;;;;;6281973;28;20253;-54
2022/11/05 00:57:39;;;;;;;9.80;8.80;;;9.80;1.00;;;;;;6281643;28;20616;-55
2022/11/05 01:00:45;;;;;;;10.27;9.27;;;9.80;1.00;;;;;;6288620;28;20232;-54
2022/11/05 01:03:54;;;;;;;9.87;8.63;;;9.80;1.00;;;;;;6284342;28;20870;-54
2022/11/05 01:06:57;;;;;;;11.23;8.47;;;9.90;1.00;;;;;;6286565;28;20481;-57
2022/11/05 01:10:01;;;;;;;9.03;8.17;;;9.90;1.00;;;;;;6301370;28;20229;-54
2022/11/05 01:13:04;;;;;;;9.43;8.17;;;9.90;1.00;;;;;;6290874;28;20637;-55
2022/11/05 01:16:18;;;;;;;9.53;8.50;;;9.90;1.00;;;;;;6284757;28;20379;-58
2022/11/05 01:19:23;;;;;;;9.07;8.27;;;9.90;1.00;;;;;;6288235;28;20232;-53
2022/11/05 01:22:26;;;;;;;8.93;8.03;;;9.90;1.00;;;;;;6300163;28;20234;-52
2022/11/05 01:25:35;;;;;;;8.13;7.33;;;9.90;1.00;;;;;;6309483;28;20233;-55
2022/11/05 01:28:40;;;;;;;8.10;7.40;;;9.90;1.00;;;;;;6307368;28;20236;-54
2022/11/05 01:31:45;;;;;;;9.67;8.40;;;9.90;1.00;;;;;;6308575;28;20237;-53
2022/11/05 01:34:48;;;;;;;9.27;7.83;;;9.90;1.00;;;;;;6307882;28;20232;-53
2022/11/05 01:37:51;;;;;;;8.40;7.67;;;9.90;1.00;;;;;;6294739;28;20244;-54
2022/11/05 01:40:54;;;;;;;11.33;9.20;;;9.90;1.00;;;;;;6297511;28;20240;-53
2022/11/05 01:43:59;;;;;;;13.07;9.87;;;9.80;1.00;;;;;;6308782;28;20245;-53
2022/11/05 01:47:03;;;;;;;11.63;10.17;;;9.80;1.00;;;;;;6307313;28;20248;-53
2022/11/05 01:50:19;;;;;;;10.73;9.70;;;9.80;1.00;;;;;;6289849;28;20229;-55
2022/11/05 01:53:28;;;;;;;9.80;8.90;;;9.80;1.00;;;;;;6299292;28;20251;-56
2022/11/05 01:56:35;;;;;;;9.80;9.00;;;9.80;1.00;;;;;;6293817;28;20248;-53
2022/11/05 01:59:43;;;;;;;17.90;10.20;;;9.80;1.00;;;;;;6283806;28;20380;-55
2022/11/05 02:02:47;;;;;;;10.70;9.70;;;9.80;1.00;;;;;;6282803;28;20905;-54
2022/11/05 02:05:52;;;;;;;11.00;9.97;;;9.70;1.00;;;;;;6283688;28;20241;-53
2022/11/05 02:09:02;;;;;;;14.33;9.83;;;9.70;1.00;;;;;;6296406;28;20257;-53
2022/11/05 02:12:12;;;;;;;13.97;9.97;;;9.70;1.00;;;;;;6302853;28;20240;-53
2022/11/05 02:15:19;;;;;;;14.00;10.87;;;9.70;1.00;;;;;;6301912;28;20257;-53
2022/11/05 02:18:36;;;;;;;13.30;10.33;;;9.70;1.00;;;;;;6287858;28;20244;-53
2022/11/05 02:22:07;;;;;;;12.00;9.50;;;9.60;1.00;;;;;;6298503;28;20234;-53
2022/11/05 02:25:34;;;;;;;12.00;10.10;;;9.60;1.00;;;;;;6281456;28;20280;-57
2022/11/05 02:29:11;;;;;;;12.67;9.83;;;9.60;1.00;;;;;;6286395;28;20237;-55
2022/11/05 02:32:23;;;;;;;10.47;9.53;;;9.60;1.00;;;;;;6288307;28;20746;-53
2022/11/05 02:35:38;;;;;;;11.10;10.10;;;9.50;1.00;;;;;;6286948;28;20233;-54
2022/11/05 02:38:51;;;;;;;12.20;10.80;;;9.60;1.00;;;;;;6300272;28;20232;-54
2022/11/05 02:42:07;;;;;;;11.77;10.80;;;9.50;1.00;;;;;;6299705;28;20229;-52
2022/11/05 02:45:25;;;;;;;16.33;11.00;;;9.40;1.00;;;;;;6312841;28;20272;-54
2022/11/05 02:48:37;;;;;;;13.03;10.83;;;9.40;1.00;;;;;;6301290;28;20248;-53
2022/11/05 02:51:47;;;;;;;19.63;10.97;;;9.40;1.00;;;;;;6289602;28;20705;-54
2022/11/05 02:54:58;;;;;;;12.20;10.93;;;9.40;1.00;;;;;;6287235;28;20394;-53
2022/11/05 02:58:03;;;;;;;12.23;10.50;;;9.30;1.00;;;;;;6286565;28;20233;-53
2022/11/05 03:01:06;;;;;;;12.10;11.00;;;9.30;1.00;;;;;;6286672;28;20691;-49
2022/11/05 03:04:14;;;;;;;11.97;10.43;;;9.30;1.00;;;;;;6288527;28;20248;-53
2022/11/05 03:07:37;;;;;;;18.80;10.53;;;9.20;1.00;;;;;;6309626;28;20236;-55
2022/11/05 03:10:45;;;;;;;13.43;11.43;;;9.20;1.00;;;;;;6303617;28;20221;-53
2022/11/05 03:14:04;;;;;;;12.03;10.83;;;9.20;1.00;;;;;;6304391;28;20237;-55
2022/11/05 03:17:16;;;;;;;13.80;10.43;;;9.10;1.00;;;;;;6286601;28;20261;-62
2022/11/05 03:20:23;;;;;;;12.90;9.90;;;9.20;1.00;;;;;;6286069;28;20309;-54
2022/11/05 03:23:31;;;;;;;11.13;10.10;;;9.10;1.00;;;;;;6296606;28;20491;-52
2022/11/05 03:26:39;;;;;;;13.07;11.47;;;9.10;1.00;;;;;;6285945;28;20234;-53
2022/11/05 03:29:46;;;;;;;18.40;10.70;;;9.10;1.00;;;;;;6287240;28;20241;-52
2022/11/05 03:32:54;;;;;;;12.23;10.93;;;9.20;1.00;;;;;;6286442;28;20267;-53
2022/11/05 03:36:01;;;;;;;12.27;10.77;;;9.10;1.00;;;;;;6285993;28;20233;-52
2022/11/05 03:39:08;;;;;;;14.33;10.20;;;9.00;1.00;;;;;;6296855;28;20435;-52
2022/11/05 03:42:15;;;;;;;14.87;10.90;;;9.00;1.00;;;;;;6296752;28;20260;-53
2022/11/05 03:45:23;;;;;;;16.37;10.63;;;9.00;1.00;;;;;;6284590;28;20233;-54
2022/11/05 03:48:29;;;;;;;18.30;11.77;;;9.00;1.00;;;;;;6285590;28;20745;-53
2022/11/05 03:51:41;;;;;;;16.77;11.37;;;9.00;1.00;;;;;;6296591;28;20240;-54
2022/11/05 03:54:45;;;;;;;13.60;11.30;;;9.00;1.00;;;;;;6298889;28;20398;-52
2022/11/05 03:57:59;;;;;;;11.83;10.63;;;9.00;1.00;;;;;;6292187;28;20305;-53
2022/11/05 04:01:04;;;;;;;10.00;9.23;;;9.00;1.00;;;;;;6285169;28;20613;-55
2022/11/05 04:04:07;;;;;;;13.97;10.27;;;9.00;1.00;;;;;;6284677;28;20233;-54
2022/11/05 04:14:01;;;;;;;12.13;8.73;;;8.90;1.00;;;;;;6283918;28;20286;-53
2022/11/05 04:17:09;;;;;;;16.43;9.67;;;9.00;1.00;;;;;;6284478;28;20236;-54
2022/11/05 04:26:54;;;;;;;9.70;8.73;;;8.80;1.00;;;;;;6283689;28;20229;-54
2022/11/05 04:33:27;;;;;;;13.10;9.00;;;8.80;1.00;;;;;;6284743;28;20237;-54
2022/11/05 04:36:30;;;;;;;9.40;7.93;;;8.70;1.00;;;;;;6301017;28;20737;-53
2022/11/05 04:39:34;;;;;;;10.37;8.53;;;8.70;1.00;;;;;;6296183;28;20379;-54
2022/11/05 04:42:37;;;;;;;9.40;8.43;;;8.70;1.00;;;;;;6298936;28;20236;-53
2022/11/05 04:45:40;;;;;;;13.50;7.83;;;8.70;1.00;;;;;;6299593;28;20232;-53
2022/11/05 04:48:43;;;;;;;8.87;7.90;;;8.70;1.00;;;;;;6302483;28;20826;-54
2022/11/05 04:51:46;;;;;;;9.80;8.70;;;8.70;1.00;;;;;;6303265;28;20233;-54
2022/11/05 04:54:50;;;;;;;8.53;7.80;;;8.70;1.00;;;;;;6293295;28;20233;-54
2022/11/05 04:57:54;;;;;;;10.73;8.03;;;8.70;1.00;;;;;;6289074;28;20493;-54
2022/11/05 05:00:57;;;;;;;15.30;8.37;;;8.70;1.00;;;;;;6296328;28;20275;-53
2022/11/05 05:04:00;;;;;;;9.97;8.60;;;8.70;1.00;;;;;;6293093;28;20237;-53
2022/11/05 05:07:03;;;;;;;10.43;7.60;;;8.70;1.00;;;;;;6288019;28;20627;-53
2022/11/05 05:10:09;;;;;;;15.10;8.00;;;8.60;1.00;;;;;;6303567;28;20232;-53
2022/11/05 05:13:12;;;;;;;11.43;8.10;;;8.60;1.00;;;;;;6299580;28;20241;-54
2022/11/05 05:16:19;;;;;;;10.67;8.47;;;8.60;1.00;;;;;;6287305;28;20623;-53
2022/11/05 05:19:24;;;;;;;11.83;8.70;;;8.60;1.00;;;;;;6294717;28;20241;-55
2022/11/05 05:22:26;;;;;;;12.60;8.23;;;8.60;1.00;;;;;;6303671;28;20775;-54
2022/11/05 05:25:30;;;;;;;10.30;7.70;;;8.50;1.00;;;;;;6293789;28;20256;-55
2022/11/05 05:28:33;;;;;;;15.40;7.80;;;8.50;1.00;;;;;;6288222;28;20248;-55
2022/11/05 05:31:36;;;;;;;10.10;7.90;;;8.60;1.00;;;;;;6299276;28;20254;-53
2022/11/05 05:34:39;;;;;;;10.53;8.70;;;8.70;1.00;;;;;;6301193;28;20225;-53
2022/11/05 05:37:43;;;;;;;11.73;8.70;;;8.50;1.00;;;;;;6294855;28;20228;-52
2022/11/05 05:40:48;;;;;;;14.27;8.20;;;8.40;1.00;;;;;;6289848;28;20233;-53
2022/11/05 05:43:51;;;;;;;13.37;8.23;;;8.40;1.00;;;;;;6291090;28;20256;-54
2022/11/05 05:46:55;;;;;;;16.87;8.50;;;8.40;1.00;;;;;;6298835;28;20247;-54
2022/11/05 05:49:58;;;;;;;15.57;8.30;;;8.30;1.00;;;;;;6287740;28;20248;-54
2022/11/05 05:53:01;;;;;;;13.00;8.17;;;8.40;1.00;;;;;;6291884;28;20243;-54
2022/11/05 05:56:06;;;;;;;10.63;8.10;;;8.30;1.00;;;;;;6294285;28;20259;-54
2022/11/05 05:59:09;;;;;;;11.00;8.03;;;8.10;1.00;;;;;;6299588;28;20247;-54
2022/11/05 06:02:12;;;;;;;13.53;7.90;;;8.30;1.00;;;;;;6297289;28;20717;-58
2022/11/05 06:05:15;;;;;;;10.80;8.50;;;8.30;1.00;;;;;;6300040;28;20389;-55
2022/11/05 06:08:18;;;;;;;12.37;8.20;;;8.20;1.00;;;;;;6289004;28;20232;-53
2022/11/05 06:11:22;;;;;;;12.13;7.43;;;8.20;1.00;;;;;;6298055;28;20233;-52
2022/11/05 06:14:25;;;;;;;14.27;7.83;;;8.20;1.00;;;;;;6298674;28;20247;-54
2022/11/05 06:17:28;;;;;;;10.77;7.93;;;8.30;1.00;;;;;;6290096;28;20229;-53
2022/11/05 06:20:31;;;;;;;13.83;8.07;;;8.10;1.00;;;;;;6291137;28;20587;-59
2022/11/05 06:23:35;;;;;;;9.97;7.80;;;8.20;1.00;;;;;;6303177;28;20233;-53
2022/11/05 06:26:44;;;;;;;9.83;7.63;;;8.20;1.00;;;;;;6304178;28;20236;-53
2022/11/05 06:29:47;;;;;;;15.13;8.60;;;8.30;1.00;;;;;;6297192;28;20240;-55
2022/11/05 06:32:50;;;;;;;10.93;7.83;;;8.20;1.00;;;;;;6306644;28;20229;-53
2022/11/05 06:35:54;;;;;;;9.50;7.63;;;8.40;1.00;;;;;;6295297;28;20792;-54
2022/11/05 06:38:56;;;;;;;11.63;7.63;;;8.20;1.00;;;;;;6299442;28;20237;-53
2022/11/05 06:42:00;;;;;;;16.33;9.07;;;8.20;1.00;;;;;;6296756;28;20240;-53
2022/11/05 06:45:22;;;;;;;15.73;8.27;;;8.20;1.00;;;;;;6295475;28;20324;-52
2022/11/05 06:48:25;;;;;;;12.93;8.17;;;8.20;1.00;;;;;;6298453;28;20228;-54
2022/11/05 06:51:29;;;;;;;10.10;7.90;;;8.20;1.00;;;;;;6299294;28;20364;-53
2022/11/05 06:54:32;;;;;;;9.33;7.70;;;8.20;1.00;;;;;;6283614;28;20738;-52
2022/11/05 06:57:37;;;;;;;12.27;8.33;;;8.30;1.00;;;;;;6293729;28;20244;-53
2022/11/05 07:00:40;;;;;;;8.40;6.83;;;8.20;1.00;;;;;;6295547;28;20229;-53
2022/11/05 07:03:47;;;;;;;14.53;8.00;;;8.20;1.00;;;;;;6300129;28;20233;-53
2022/11/05 07:06:50;;;;;;;7.73;6.67;;;8.20;1.00;;;;;;6301930;28;20233;-53
2022/11/05 07:09:53;;;;;;;14.10;8.10;;;8.20;1.00;;;;;;6303952;28;21737;-59
2022/11/05 07:12:57;;;;;;;16.50;7.13;;;8.20;1.00;;;;;;6303690;28;20241;-54
2022/11/05 07:16:08;;;;;;;12.13;7.53;;;8.20;1.00;;;;;;6296453;28;20698;-53
2022/11/05 07:19:12;;;;;;;10.27;6.63;;;8.20;1.00;;;;;;6294486;28;20232;-53
2022/11/05 07:22:15;;;;;;;10.27;6.87;;;8.40;1.00;;;;;;6299469;28;20732;-53
2022/11/05 07:25:18;;;;;;;13.40;7.57;;;8.20;1.00;;;;;;6298375;28;20267;-52
2022/11/05 07:28:22;;;;;;;10.03;7.03;;;8.10;1.00;;;;;;6299873;28;20615;-54
2022/11/05 07:31:25;;;;;;;12.00;6.60;;;8.10;1.00;;;;;;6294634;28;20249;-53
2022/11/05 07:34:28;;;;;;;7.40;6.70;;;8.20;1.00;;;;;;6298226;28;20610;-54
2022/11/05 07:37:43;;;;;;;10.07;6.70;;;8.10;1.00;;;;;;6305780;28;20732;-54
2022/11/05 07:40:46;;;;;;;8.37;7.23;;;8.20;1.00;;;;;;6291614;28;20241;-52
2022/11/05 07:43:59;;;;;;;12.10;7.00;;;8.20;1.00;;;;;;6289977;28;20241;-53
2022/11/05 07:47:02;;;;;;;13.23;7.40;;;8.40;1.00;;;;;;6289352;27;20233;-52
2022/11/05 07:50:08;;;;;;;12.50;7.77;;;8.10;1.00;;;;;;6292000;28;20240;-54
2022/11/05 07:53:13;;;;;;;13.17;6.90;;;8.20;1.00;;;;;;6295136;28;20241;-53
2022/11/05 07:56:16;;;;;;;10.60;6.90;;;8.20;1.00;;;;;;6291070;28;20306;-53
2022/11/05 07:59:21;;;;;;;10.20;7.67;;;8.20;1.00;;;;;;6289807;28;20234;-54
2022/11/05 08:02:24;;;;;;;11.20;7.40;;;8.20;1.00;;;;;;6304897;28;20772;-54
2022/11/05 08:05:28;;;;;;;14.60;7.63;;;8.30;1.00;;;;;;6287448;28;20244;-53
2022/11/05 08:08:31;;;;;;;17.77;7.70;;;8.40;1.00;;;;;;6297615;28;20502;-53
2022/11/05 08:11:34;;;;;;;7.60;6.87;;;8.40;1.00;;;;;;6300460;28;20248;-54
2022/11/05 08:14:39;;;;;;;10.63;6.90;;;8.40;1.00;;;;;;6296476;28;20239;-54
2022/11/05 08:17:42;;;;;;;17.00;8.13;;;8.40;1.00;;;;;;6302102;28;20244;-53
2022/11/05 08:20:46;;;;;;;15.97;7.97;;;8.40;1.00;;;;;;6291076;28;20229;-53
2022/11/05 08:23:49;;;;;;;14.67;8.30;;;8.40;1.00;;;;;;6298406;28;20244;-53
2022/11/05 08:26:53;;;;;;;8.50;7.10;;;8.40;1.00;;;;;;6288749;28;20264;-54
2022/11/05 08:29:57;;;;;;;8.53;7.47;;;8.40;1.00;;;;;;6298248;28;20295;-54
2022/11/05 08:33:02;;;;;;;12.43;7.97;;;8.40;1.00;;;;;;6298982;28;20243;-53
2022/11/05 08:36:05;;;;;;;9.63;7.33;;;8.40;1.00;;;;;;6297900;28;20224;-52
2022/11/05 08:39:09;;;;;;;11.17;7.20;;;8.40;1.00;;;;;;6296076;28;20237;-54
2022/11/05 08:42:30;;;;;;;11.00;7.10;;;8.40;1.00;;;;;;6297751;28;20753;-52
2022/11/05 08:45:37;;;;;;;8.70;6.97;;;8.40;1.00;;;;;;6292438;28;20241;-54
2022/11/05 08:48:41;;;;;;;11.17;7.53;;;8.60;1.00;;;;;;6291006;28;20229;-53
2022/11/05 08:51:44;;;;;;;9.40;7.53;;;8.50;1.00;;;;;;6300027;28;20236;-52
2022/11/05 08:54:47;;;;;;;15.03;7.20;;;8.70;1.00;;;;;;6298586;28;20728;-53
2022/11/05 08:57:56;;;;;;;18.07;7.00;;;8.80;1.00;;;;;;6302425;28;20241;-53
2022/11/05 09:01:00;;;;;;;11.63;6.73;;;9.10;1.00;;;;;;6290025;28;20232;-53
2022/11/05 09:04:08;;;;;;;10.63;7.07;;;9.10;1.00;;;;;;6297441;28;20241;-53
2022/11/05 09:07:11;;;;;;;10.23;7.10;;;9.30;1.00;;;;;;6304044;28;20229;-53
2022/11/05 09:10:14;;;;;;;12.23;7.27;;;9.40;1.00;;;;;;6294560;28;20267;-52
2022/11/05 09:13:17;;;;;;;12.57;7.57;;;9.60;1.00;;;;;;6295927;28;20248;-59
2022/11/05 09:16:25;;;;;;;9.90;6.10;;;9.70;1.00;;;;;;6295445;28;20240;-52
2022/11/05 09:19:28;;;;;;;13.63;6.70;;;9.80;1.00;;;;;;6305464;28;20648;-53
2022/11/05 09:22:31;;;;;;;9.87;6.13;;;9.90;1.00;;;;;;6288744;28;20237;-54
2022/11/05 09:25:34;;;;;;;11.90;6.50;;;10.00;1.00;;;;;;6292424;28;20243;-54
2022/11/05 09:28:37;;;;;;;17.90;7.90;;;10.10;1.00;;;;;;6290762;28;20736;-54
2022/11/05 09:31:42;;;;;;;12.03;6.60;;;10.20;1.00;;;;;;6300738;28;20458;-55
2022/11/05 09:34:47;;;;;;;14.43;6.33;;;10.40;1.00;;;;;;6300924;28;20236;-57
2022/11/05 09:37:50;;;;;;;8.07;6.13;;;10.50;1.00;;;;;;6292015;28;20302;-51
2022/11/05 09:40:57;;;;;;;11.03;6.00;;;10.60;1.00;;;;;;6300934;28;20232;-52
2022/11/05 09:44:05;;;;;;;9.60;5.80;;;10.80;1.00;;;;;;6296965;28;20552;-53
2022/11/05 09:47:16;;;;;;;10.83;5.43;;;10.90;1.00;;;;;;6295913;28;20233;-53
2022/11/05 09:50:24;;;;;;;12.70;5.63;;;11.00;1.00;;;;;;6296093;28;20237;-52
2022/11/05 09:53:27;;;;;;;10.53;5.83;;;11.00;1.00;;;;;;6302853;28;20740;-55
2022/11/05 09:56:35;;;;;;;12.63;5.40;;;11.10;1.00;;;;;;6292427;28;20237;-56
2022/11/05 09:59:43;;;;;;;10.50;5.33;;;11.20;1.00;;;;;;6291304;28;20236;-53
2022/11/05 10:02:50;;;;;;;11.23;5.53;;;11.20;1.00;;;;;;6302070;28;20234;-53
2022/11/05 10:06:09;;;;;;;9.93;5.23;;;11.30;1.00;;;;;;6290779;28;20229;-54
2022/11/05 10:09:18;;;;;;;9.13;5.60;;;11.40;1.00;;;;;;6297376;28;20229;-53
2022/11/05 10:12:28;;;;;;;8.80;5.73;;;11.40;1.00;;;;;;6291674;28;20260;-53
2022/11/05 10:15:35;;;;;;;9.43;4.90;;;11.50;1.00;;;;;;6296994;28;20737;-62
2022/11/05 10:18:42;;;;;;;10.40;5.00;;;11.70;1.00;;;;;;6292574;28;20394;-54
2022/11/05 10:21:45;;;;;;;7.33;5.40;;;11.70;1.00;;;;;;6288538;28;20256;-55
2022/11/05 10:25:17;;;;;;;8.13;5.03;;;11.80;1.00;;;;;;6292807;28;20635;-54
2022/11/05 10:28:23;;;;;;;6.67;4.90;;;12.00;1.00;;;;;;6301133;28;20228;-57
2022/11/05 10:31:29;;;;;;;5.80;3.97;;;12.10;1.00;;;;;;6297659;28;20230;-54
2022/11/05 10:34:39;;;;;;;8.47;4.70;;;12.20;1.00;;;;;;6304449;28;20824;-54
2022/11/05 10:37:49;;;;;;;13.43;4.63;;;12.30;1.00;;;;;;6301219;28;20228;-55
2022/11/05 10:41:05;;;;;;;9.87;4.37;;;12.40;1.00;;;;;;6298866;27;20230;-53
2022/11/05 10:44:25;;;;;;;13.70;4.40;;;12.40;1.00;;;;;;6295920;28;20244;-54
2022/11/05 10:47:45;;;;;;;6.50;4.07;;;12.40;1.00;;;;;;6296162;28;20237;-54
2022/11/05 10:50:49;;;;;;;6.87;4.00;;;12.50;1.00;;;;;;6304663;28;20236;-54
2022/11/05 10:53:55;;;;;;;7.23;4.10;;;12.50;1.00;;;;;;6305026;28;20233;-54
2022/11/05 10:57:27;;;;;;;5.00;3.20;;;12.60;1.00;;;;;;6300363;28;20318;-53
2022/11/05 11:00:30;;;;;;;7.00;4.30;;;12.70;1.00;;;;;;6299141;28;20240;-54
2022/11/05 11:03:48;;;;;;;8.27;4.10;;;12.80;1.00;;;;;;6293882;28;20244;-53
2022/11/05 11:06:55;;;;;;;5.10;3.60;;;13.00;1.00;;;;;;6304018;28;20233;-53
2022/11/05 11:09:57;;;;;;;7.40;3.60;;;13.00;1.00;;;;;;6291128;28;20240;-53
2022/11/05 11:13:00;;;;;;;5.70;3.40;;;13.20;1.00;;;;;;6300165;28;20600;-60
2022/11/05 11:16:15;;;;;;;4.87;3.60;;;13.20;1.00;;;;;;6298379;28;20320;-52
2022/11/05 11:19:34;;;;;;;4.90;3.10;;;13.30;1.00;;;;;;6301994;28;20252;-52
2022/11/05 11:22:38;;;;;;;6.70;2.90;;;13.30;1.00;;;;;;6299267;28;20457;-60
2022/11/05 11:25:50;;;;;;;4.63;3.17;;;13.30;1.00;;;;;;6292523;28;20229;-54
2022/11/05 11:28:57;;;;;;;5.73;3.50;;;13.30;1.00;;;;;;6289907;28;20226;-54
2022/11/05 11:32:00;;;;;;;7.80;3.50;;;13.40;1.00;;;;;;6297470;28;20247;-53
2022/11/05 11:35:05;;;;;;;4.73;3.70;;;13.40;1.00;;;;;;6298014;28;20781;-53
2022/11/05 11:38:14;;;;;;;3.13;2.90;;;13.40;1.00;;;;;;6294151;28;20244;-57
2022/11/05 11:41:25;;;;;;;3.50;3.20;;;13.40;1.00;;;;;;6296827;28;20253;-54
2022/11/05 11:44:42;;;;;;;15.90;3.63;;;13.50;1.00;;;;;;6301408;28;20228;-54
2022/11/05 11:47:46;;;;;;;6.60;3.40;;;13.50;1.00;;;;;;6294746;28;20237;-53
2022/11/05 11:50:50;;;;;;;8.43;3.47;;;13.50;1.00;;;;;;6301895;28;20237;-60
2022/11/05 11:54:00;;;;;;;6.00;3.23;;;13.50;1.00;;;;;;6287705;28;20241;-54
2022/11/05 11:57:19;;;;;;;11.83;3.67;;;13.50;1.00;;;;;;6297338;28;20225;-55
2022/11/05 12:00:25;;;;;;;3.23;3.00;;;13.50;1.00;;;;;;6300450;28;20240;-54
2022/11/05 12:03:35;;;;;;;5.10;3.10;;;13.60;1.00;;;;;;6297843;27;20252;-54
2022/11/05 12:06:46;;;;;;;5.00;3.03;;;13.60;1.00;;;;;;6291142;28;20259;-60
2022/11/05 12:10:01;;;;;;;4.30;3.30;;;13.70;1.00;;;;;;6291908;28;20226;-55
2022/11/05 12:13:39;;;;;;;4.20;2.73;;;13.80;1.00;;;;;;6290875;28;20655;-55
2022/11/05 12:17:08;;;;;;;5.50;3.00;;;14.00;1.00;;;;;;6301051;28;20226;-55
2022/11/05 12:20:30;;;;;;;3.83;2.90;;;13.90;1.00;;;;;;6294453;28;20239;-53
2022/11/05 12:24:10;;;;;;;4.47;2.60;;;13.70;1.00;;;;;;6305035;28;20233;-54
2022/11/05 12:27:27;;;;;;;2.67;2.47;;;13.70;1.00;;;;;;6291771;28;20562;-54
2022/11/05 12:30:37;;;;;;;4.47;3.10;;;13.60;1.00;;;;;;6292748;28;20238;-55
2022/11/05 12:33:53;;;;;;;6.77;3.40;;;13.50;1.00;;;;;;6294049;28;20236;-54
2022/11/05 12:37:15;;;;;;;5.00;2.93;;;13.40;1.00;;;;;;6295820;28;20236;-54
2022/11/05 12:40:33;;;;;;;5.83;2.70;;;13.30;1.00;;;;;;6290989;28;20753;-58
2022/11/05 12:43:47;;;;;;;4.67;2.63;;;13.20;1.00;;;;;;6284474;28;20612;-54
2022/11/05 12:47:06;;;;;;;5.73;3.00;;;12.90;1.00;;;;;;6289699;28;20233;-53
2022/11/05 12:50:31;;;;;;;8.47;3.10;;;12.80;1.00;;;;;;6305340;28;20403;-48
2022/11/05 12:53:48;;;;;;;4.53;3.10;;;12.80;1.00;;;;;;6290241;28;20237;-54
2022/11/05 12:56:55;;;;;;;8.90;3.17;;;12.90;1.00;;;;;;6288673;28;20232;-53
2022/11/05 13:00:15;;;;;;;4.37;2.97;;;12.90;1.00;;;;;;6289491;28;20225;-53
2022/11/05 13:03:30;;;;;;;4.80;3.10;;;12.90;1.00;;;;;;6289930;28;20237;-53
2022/11/05 13:06:39;;;;;;;5.97;2.93;;;12.90;1.00;;;;;;6296060;28;20586;-61
2022/11/05 13:09:48;;;;;;;5.47;2.73;;;13.00;1.00;;;;;;6301342;28;20642;-56
2022/11/05 13:12:58;;;;;;;6.80;2.97;;;12.90;1.00;;;;;;6292497;28;20670;-54
2022/11/05 13:16:09;;;;;;;5.60;3.00;;;13.00;1.00;;;;;;6298388;28;20300;-54
2022/11/05 13:19:19;;;;;;;4.30;2.70;;;13.00;1.00;;;;;;6289184;28;20564;-54
2022/11/05 13:22:29;;;;;;;6.33;3.20;;;13.00;1.00;;;;;;6297608;28;20236;-54
2022/11/05 13:25:37;;;;;;;6.90;3.13;;;12.90;1.00;;;;;;6284179;28;20247;-53
2022/11/05 13:28:50;;;;;;;8.57;3.00;;;12.80;1.00;;;;;;6299242;28;20260;-54
2022/11/05 13:32:02;;;;;;;3.80;2.93;;;12.80;1.00;;;;;;6289719;28;20233;-59
2022/11/05 13:35:13;;;;;;;3.87;2.67;;;12.70;1.00;;;;;;6293138;28;20630;-54
2022/11/05 13:42:04;;;;;;;4.70;3.17;;;12.70;1.00;;;;;;6297204;28;20394;-54
2022/11/05 13:45:47;;;;;;;5.37;2.70;;;12.70;1.00;;;;;;6294748;28;20245;-54
2022/11/05 13:49:07;;;;;;;3.30;2.97;;;12.70;1.00;;;;;;6297964;28;20225;-53
2022/11/05 13:52:29;;;;;;;3.23;2.80;;;12.70;1.00;;;;;;6297285;28;20233;-54
2022/11/05 13:55:56;;;;;;;3.93;3.50;;;12.70;1.00;;;;;;6288462;28;20233;-55
2022/11/05 13:59:44;;;;;;;5.07;3.20;;;12.70;1.00;;;;;;6284468;28;20282;-55
2022/11/05 14:02:50;;;;;;;6.67;3.60;;;12.70;1.00;;;;;;6289134;28;20247;-55
2022/11/05 14:06:03;;;;;;;4.63;3.27;;;12.70;1.00;;;;;;6302014;28;20237;-54
2022/11/05 14:09:10;;;;;;;4.63;2.93;;;12.70;1.00;;;;;;6295573;28;20256;-53
2022/11/05 14:12:25;;;;;;;6.00;3.23;;;12.70;1.00;;;;;;6290206;28;20248;-53
2022/11/05 14:15:31;;;;;;;3.60;3.30;;;12.70;1.00;;;;;;6295073;28;20750;-55
2022/11/05 14:18:40;;;;;;;3.40;3.10;;;12.60;1.00;;;;;;6308181;28;20241;-54
2022/11/05 14:21:53;;;;;;;4.80;3.00;;;12.60;1.00;;;;;;6285348;28;20244;-53
2022/11/05 14:24:56;;;;;;;7.37;3.53;;;12.50;1.00;;;;;;6301646;28;20229;-55
2022/11/05 14:27:59;;;;;;;4.70;3.57;;;12.50;1.00;;;;;;6298075;28;20235;-53
2022/11/05 14:31:04;;;;;;;7.13;3.47;;;12.40;1.00;;;;;;6307102;28;20225;-53
2022/11/05 14:34:22;;;;;;;8.40;3.30;;;12.40;1.00;;;;;;6296465;28;20628;-52
2022/11/05 14:37:40;;;;;;;5.73;2.80;;;12.30;1.00;;;;;;6301803;28;20244;-54
2022/11/05 14:40:44;;;;;;;8.53;3.70;;;12.30;1.00;;;;;;6291794;28;20338;-53
2022/11/05 14:43:58;;;;;;;6.77;3.00;;;12.10;1.00;;;;;;6299297;28;20320;-54
2022/11/05 14:47:04;;;;;;;3.93;3.53;;;12.00;1.00;;;;;;6289063;28;20668;-48
2022/11/05 14:50:11;;;;;;;4.53;3.17;;;12.00;1.00;;;;;;6301584;28;20232;-53
2022/11/05 14:53:30;;;;;;;3.83;3.10;;;11.90;1.00;;;;;;6298418;28;20489;-53
2022/11/05 14:56:43;;;;;;;5.93;3.30;;;11.80;1.00;;;;;;6307050;28;20489;-54
2022/11/05 14:59:55;;;;;;;6.57;3.30;;;11.70;1.00;;;;;;6292649;28;20597;-54
2022/11/05 15:03:00;;;;;;;9.10;3.73;;;11.70;1.00;;;;;;6303895;27;20240;-54
2022/11/05 15:06:21;;;;;;;3.47;3.17;;;11.60;1.00;;;;;;6294980;28;20796;-54
2022/11/05 15:09:32;;;;;;;6.70;3.60;;;11.60;1.00;;;;;;6300537;28;20235;-54
2022/11/05 15:12:39;;;;;;;6.30;3.27;;;11.50;1.00;;;;;;6291505;28;20764;-53
2022/11/05 15:15:47;;;;;;;5.97;3.63;;;11.40;1.00;;;;;;6300973;28;20285;-53
2022/11/05 15:18:52;;;;;;;6.63;3.70;;;11.30;1.00;;;;;;6298132;28;20493;-53
2022/11/05 15:21:58;;;;;;;6.03;3.20;;;11.30;1.00;;;;;;6297870;28;20238;-53
2022/11/05 15:25:04;;;;;;;4.93;3.90;;;11.20;1.00;;;;;;6305526;28;20372;-57
2022/11/05 15:28:15;;;;;;;8.30;3.90;;;11.10;1.00;;;;;;6306473;27;20421;-53
2022/11/05 15:31:28;;;;;;;6.83;3.60;;;11.10;1.00;;;;;;6295197;28;20244;-55
2022/11/05 15:34:34;;;;;;;3.70;3.40;;;11.00;1.00;;;;;;6294271;28;20612;-53
2022/11/05 15:37:37;;;;;;;8.73;4.23;;;10.90;1.00;;;;;;6296265;28;20737;-56
2022/11/05 15:40:44;;;;;;;5.73;3.73;;;10.90;1.00;;;;;;6291398;28;20233;-54
2022/11/05 15:43:48;;;;;;;5.93;3.97;;;10.80;1.00;;;;;;6292226;28;20237;-54
2022/11/05 15:47:11;;;;;;;6.33;3.73;;;10.80;1.00;;;;;;6300847;28;20623;-54
2022/11/05 15:50:16;;;;;;;5.47;3.90;;;10.80;1.00;;;;;;6294937;28;20238;-50
2022/11/05 15:53:53;;;;;;;5.77;4.63;;;10.80;1.00;;;;;;6287669;28;20431;-53
2022/11/05 15:57:23;;;;;;;6.27;4.03;;;10.70;1.00;;;;;;6301274;28;20324;-55
2022/11/05 16:00:27;;;;;;;7.63;3.93;;;10.60;1.00;;;;;;6293192;28;20236;-52
2022/11/05 16:03:33;;;;;;;6.30;4.40;;;10.50;1.00;;;;;;6306058;28;20327;-54
2022/11/05 16:06:38;;;;;;;5.53;3.93;;;10.40;1.00;;;;;;6299877;28;20247;-54
2022/11/05 16:09:53;;;;;;;7.30;4.50;;;10.40;1.00;;;;;;6301822;28;20228;-53
2022/11/05 16:13:18;;;;;;;4.70;4.10;;;10.30;1.00;;;;;;6301453;28;20244;-54
2022/11/05 16:16:33;;;;;;;5.10;4.60;;;10.30;1.00;;;;;;6300977;28;20225;-54
2022/11/05 16:19:40;;;;;;;4.90;4.03;;;10.20;1.00;;;;;;6289163;28;20429;-53
2022/11/05 16:22:48;;;;;;;8.20;4.80;;;10.10;1.00;;;;;;6302671;28;20248;-53
2022/11/05 16:25:51;;;;;;;6.03;4.53;;;10.10;1.00;;;;;;6298314;28;20697;-53
2022/11/05 16:28:56;;;;;;;4.50;4.03;;;10.00;1.00;;;;;;6298635;28;20232;-53
2022/11/05 16:32:01;;;;;;;10.63;4.97;;;10.00;1.00;;;;;;6289479;28;20670;-54
2022/11/05 16:35:07;;;;;;;4.40;4.00;;;9.90;1.00;;;;;;6297446;28;20225;-53
2022/11/05 16:38:12;;;;;;;5.30;4.80;;;9.80;1.00;;;;;;6301141;28;20248;-59
2022/11/05 16:41:17;;;;;;;6.87;4.70;;;9.80;1.00;;;;;;6300234;28;20256;-53
2022/11/05 16:44:22;;;;;;;6.57;5.07;;;9.70;1.00;;;;;;6296003;28;20240;-53
2022/11/05 16:47:25;;;;;;;6.03;4.97;;;9.70;1.00;;;;;;6287404;28;20236;-56
2022/11/05 16:50:31;;;;;;;8.23;5.60;;;9.60;1.00;;;;;;6298393;28;20245;-51
2022/11/05 16:53:34;;;;;;;5.47;4.93;;;9.50;1.00;;;;;;6284283;28;20251;-53
2022/11/05 16:56:38;;;;;;;11.80;6.10;;;9.50;1.00;;;;;;6297105;28;20716;-53
2022/11/05 16:59:42;;;;;;;8.90;6.40;;;9.40;1.00;;;;;;6304406;28;20240;-53
2022/11/05 17:02:46;;;;;;;7.50;6.30;;;9.40;1.00;;;;;;6298631;28;20395;-54
2022/11/05 17:05:49;;;;;;;12.27;6.70;;;9.40;1.00;;;;;;6289790;28;20229;-53
2022/11/05 17:08:52;;;;;;;9.63;7.27;;;9.40;1.00;;;;;;6298392;28;20770;-53
2022/11/05 17:11:55;;;;;;;9.70;8.13;;;9.40;1.00;;;;;;6296301;28;20233;-53
2022/11/05 17:14:59;;;;;;;8.97;6.77;;;9.40;1.00;;;;;;6291524;28;20228;-53